createdAt,value
2023-05-02T14:35:56.056Z,5.17
2023-05-02T14:38:22.870Z,5.87
2023-05-02T14:40:49.728Z,5.50
2023-05-02T14:43:16.589Z,6.00
2023-05-02T14:45:43.377Z,5.60
2023-05-02T14:48:10.869Z,5.50
2023-05-02T14:50:39.697Z,5.30
2023-05-02T14:53:06.879Z,5.20
2023-05-02T14:55:40.732Z,5.43
2023-05-02T14:58:09.008Z,4.63
2023-05-02T15:00:37.899Z,5.53
2023-05-02T15:03:07.921Z,4.97
2023-05-02T15:05:36.896Z,4.60
2023-05-02T15:08:03.944Z,4.83
2023-05-02T15:10:30.979Z,4.97
2023-05-02T15:12:57.814Z,5.30
2023-05-02T15:15:25.424Z,5.00
2023-05-02T15:17:53.115Z,4.73
2023-05-02T15:20:20.186Z,5.37
2023-05-02T15:22:47.035Z,5.57
2023-05-02T15:25:13.895Z,5.60
2023-05-02T15:27:41.729Z,4.93
2023-05-02T15:30:09.061Z,5.10
2023-05-02T15:32:36.113Z,4.50
2023-05-02T15:35:07.859Z,4.40
2023-05-02T15:37:35.455Z,4.10
2023-05-02T15:40:04.163Z,3.30
2023-05-02T15:42:31.406Z,3.20
2023-05-02T15:44:58.342Z,3.60
2023-05-02T15:47:25.806Z,4.30
2023-05-02T15:49:55.017Z,4.70
2023-05-02T15:52:22.026Z,4.80
2023-05-02T15:54:51.529Z,5.37
2023-05-02T15:57:19.659Z,4.33
2023-05-02T15:59:46.646Z,4.50
2023-05-02T16:02:13.812Z,4.40
2023-05-02T16:04:40.792Z,4.47
2023-05-02T16:07:07.781Z,3.83
2023-05-02T16:09:34.648Z,4.23
2023-05-02T16:12:01.656Z,4.10
2023-05-02T16:14:29.026Z,4.00
2023-05-02T16:16:56.260Z,3.70
2023-05-02T16:19:23.107Z,4.33
2023-05-02T16:21:50.103Z,4.43
2023-05-02T16:24:16.995Z,4.57
2023-05-02T16:26:43.815Z,4.20
2023-05-02T16:29:10.704Z,4.37
2023-05-02T16:31:37.651Z,4.37
2023-05-02T16:34:04.726Z,5.03
2023-05-02T16:36:31.735Z,4.70
2023-05-02T16:38:58.604Z,4.70
2023-05-02T16:41:25.458Z,4.40
2023-05-02T16:43:52.444Z,5.20
2023-05-02T16:46:19.262Z,5.17
2023-05-02T16:48:46.276Z,5.30
2023-05-02T16:51:13.130Z,5.13
2023-05-02T16:53:40.141Z,5.63
2023-05-02T16:56:07.591Z,6.90
2023-05-02T16:58:34.617Z,7.20
2023-05-02T17:01:02.340Z,7.20
2023-05-02T17:03:29.801Z,7.47
2023-05-02T17:06:01.350Z,7.70
2023-05-02T17:08:28.836Z,7.00
2023-05-02T17:10:56.351Z,6.20
2023-05-02T17:13:25.657Z,5.47
2023-05-02T17:15:53.778Z,6.20
2023-05-02T17:18:21.996Z,6.10
2023-05-02T17:20:51.322Z,6.13
2023-05-02T17:23:18.281Z,6.13
2023-05-02T17:25:45.350Z,5.37
2023-05-02T17:28:12.249Z,6.00
2023-05-02T17:30:39.066Z,5.97
2023-05-02T17:33:06.115Z,5.30
2023-05-02T17:35:33.289Z,5.10
2023-05-02T17:38:00.157Z,4.83
2023-05-02T17:40:27.094Z,5.38
2023-05-02T17:42:55.443Z,5.20
2023-05-02T17:45:22.268Z,5.80
2023-05-02T17:47:49.161Z,5.33
2023-05-02T17:50:16.080Z,5.10
2023-05-02T17:52:42.942Z,5.50
2023-05-02T17:55:09.823Z,5.17
2023-05-02T17:57:36.629Z,4.37
2023-05-02T18:00:07.435Z,5.20
2023-05-02T18:02:37.059Z,4.83
2023-05-02T18:05:05.006Z,4.60
2023-05-02T18:07:32.069Z,4.80
2023-05-02T18:10:02.206Z,5.03
2023-05-02T18:12:29.600Z,5.38
2023-05-02T18:14:56.435Z,4.10
2023-05-02T18:17:23.960Z,4.20
2023-05-02T18:19:50.878Z,3.97
2023-05-02T18:22:20.127Z,4.03
2023-05-02T18:24:47.792Z,4.10
2023-05-02T18:27:15.139Z,3.92
2023-05-02T18:29:41.959Z,5.10
2023-05-02T18:32:09.144Z,4.63
2023-05-02T18:34:38.443Z,4.20
2023-05-02T18:37:06.933Z,4.60
2023-05-02T18:39:35.366Z,4.47
2023-05-02T18:42:06.194Z,4.07
2023-05-02T18:44:33.026Z,4.50
2023-05-02T18:46:59.841Z,4.25
2023-05-02T18:49:27.100Z,4.43
2023-05-02T18:51:54.655Z,4.13
2023-05-02T18:54:23.397Z,4.30
2023-05-02T18:56:50.500Z,5.07
2023-05-02T18:59:19.077Z,5.80
2023-05-02T19:01:48.339Z,5.83
2023-05-02T19:04:15.488Z,6.13
2023-05-02T19:06:42.471Z,5.80
2023-05-02T19:09:09.448Z,6.50
2023-05-02T19:11:36.736Z,5.90
2023-05-02T19:14:03.723Z,6.33
2023-05-02T19:16:31.683Z,6.80
2023-05-02T19:18:58.674Z,6.30
2023-05-02T19:21:25.849Z,6.90
2023-05-02T19:23:52.979Z,6.60
2023-05-02T19:26:20.121Z,6.97
2023-05-02T19:28:47.142Z,7.30
2023-05-02T19:31:19.154Z,6.53
2023-05-02T19:33:52.800Z,7.05
2023-05-02T19:36:20.422Z,6.65
2023-05-02T19:38:52.200Z,6.68
2023-05-02T19:41:19.318Z,7.40
2023-05-02T19:43:46.199Z,7.37
2023-05-02T19:46:15.138Z,6.93
2023-05-02T19:48:42.148Z,7.30
2023-05-02T19:51:09.304Z,6.77
2023-05-02T19:53:37.365Z,7.07
2023-05-02T19:56:05.329Z,7.75
2023-05-02T19:58:32.214Z,7.50
2023-05-02T20:00:59.689Z,7.32
2023-05-02T20:03:26.700Z,8.38
2023-05-02T20:05:53.723Z,7.32
2023-05-02T20:08:21.651Z,7.47
2023-05-02T20:10:50.285Z,7.18
2023-05-02T20:13:17.133Z,7.68
2023-05-02T20:15:44.079Z,7.15
2023-05-02T20:18:10.953Z,7.40
2023-05-02T20:20:38.558Z,7.70
2023-05-02T20:23:05.453Z,7.28
2023-05-02T20:25:32.368Z,7.95
2023-05-02T20:27:59.231Z,8.48
2023-05-02T20:30:26.073Z,8.20
2023-05-02T20:32:53.462Z,8.52
2023-05-02T20:35:20.799Z,7.93
2023-05-02T20:37:48.701Z,7.73
2023-05-02T20:40:15.761Z,7.80
2023-05-02T20:42:43.868Z,7.35
2023-05-02T20:45:12.662Z,8.13
2023-05-02T20:47:39.678Z,8.40
2023-05-02T20:50:09.375Z,8.90
2023-05-02T20:52:38.943Z,9.77
2023-05-02T20:55:06.555Z,10.15
2023-05-02T20:57:33.541Z,9.20
2023-05-02T21:00:00.984Z,10.00
2023-05-02T21:02:28.252Z,10.32
2023-05-02T21:04:55.464Z,9.40
2023-05-02T21:07:22.478Z,9.90
2023-05-02T21:09:49.747Z,9.80
2023-05-02T21:12:16.806Z,10.13
2023-05-02T21:14:43.726Z,9.65
2023-05-02T21:17:10.938Z,10.15
2023-05-02T21:19:37.836Z,10.85
2023-05-02T21:22:04.707Z,10.63
2023-05-02T21:24:31.712Z,10.63
2023-05-02T21:26:58.919Z,10.52
2023-05-02T21:29:25.772Z,10.60
2023-05-02T21:31:54.649Z,11.35
2023-05-02T21:34:21.916Z,10.75
2023-05-02T21:36:48.877Z,10.10
2023-05-02T21:39:16.414Z,10.25
2023-05-02T21:41:43.429Z,9.85
2023-05-02T21:44:11.661Z,10.35
2023-05-02T21:46:38.540Z,9.40
2023-05-02T21:49:05.444Z,10.68
2023-05-02T21:51:34.146Z,10.63
2023-05-02T21:54:00.968Z,10.50
2023-05-02T21:56:27.814Z,9.60
2023-05-02T21:58:54.645Z,11.23
2023-05-02T22:01:21.726Z,10.82
2023-05-02T22:03:48.656Z,11.07
2023-05-02T22:06:16.329Z,11.63
2023-05-02T22:08:43.255Z,10.30
2023-05-02T22:11:10.228Z,10.43
2023-05-02T22:13:37.276Z,10.20
2023-05-02T22:16:04.555Z,10.32
2023-05-02T22:18:31.451Z,11.00
2023-05-02T22:20:58.711Z,11.25
2023-05-02T22:23:25.621Z,10.70
2023-05-02T22:25:52.581Z,11.90
2023-05-02T22:28:19.631Z,10.80
2023-05-02T22:30:46.482Z,12.02
2023-05-02T22:33:14.259Z,12.23
2023-05-02T22:35:41.360Z,12.00
2023-05-02T22:38:11.275Z,12.88
2023-05-02T22:40:38.168Z,11.80
2023-05-02T22:43:05.039Z,12.40
2023-05-02T22:45:31.893Z,11.20
2023-05-02T22:47:58.776Z,11.55
2023-05-02T22:50:26.364Z,12.30
2023-05-02T22:52:57.132Z,12.30
2023-05-02T22:55:24.604Z,12.00
2023-05-02T22:57:51.830Z,12.35
2023-05-02T23:00:18.631Z,12.30
2023-05-02T23:02:45.782Z,13.98
2023-05-02T23:05:12.699Z,13.35
2023-05-02T23:07:39.644Z,12.80
2023-05-02T23:10:07.547Z,13.55
2023-05-02T23:12:34.369Z,12.68
2023-05-02T23:15:01.475Z,13.50
2023-05-02T23:17:28.267Z,13.07
2023-05-02T23:19:55.347Z,13.00
2023-05-02T23:22:22.141Z,13.00
2023-05-02T23:24:48.943Z,13.05
2023-05-02T23:27:15.749Z,12.40
2023-05-02T23:29:42.762Z,13.73
2023-05-02T23:32:09.779Z,13.00
2023-05-02T23:34:37.445Z,13.00
2023-05-02T23:37:06.185Z,12.35
2023-05-02T23:39:33.525Z,12.30
2023-05-02T23:42:01.935Z,12.27
2023-05-02T23:44:28.743Z,12.55
2023-05-02T23:46:55.640Z,11.23
2023-05-02T23:49:22.459Z,12.02
2023-05-02T23:51:49.281Z,12.52
2023-05-02T23:54:16.351Z,12.27
2023-05-02T23:56:43.402Z,12.32
2023-05-02T23:59:11.302Z,12.05
